createdAt,value
2017-12-26T00:01:27.793Z,6.61
2017-12-26T00:03:55.514Z,6.61
2017-12-26T00:06:23.213Z,6.60
2017-12-26T00:08:50.886Z,6.60
2017-12-26T00:11:18.551Z,6.58
2017-12-26T00:13:46.221Z,6.57
2017-12-26T00:16:13.879Z,6.58
2017-12-26T00:18:41.623Z,6.55
2017-12-26T00:21:09.310Z,6.54
2017-12-26T00:23:37.017Z,6.52
2017-12-26T00:26:04.692Z,6.50
2017-12-26T00:28:32.366Z,6.47
2017-12-26T00:31:00.036Z,6.48
2017-12-26T00:33:27.671Z,6.46
2017-12-26T00:35:55.410Z,6.43
2017-12-26T00:38:23.027Z,6.40
2017-12-26T00:40:50.756Z,6.37
2017-12-26T00:43:18.374Z,6.34
2017-12-26T00:45:46.104Z,6.33
2017-12-26T00:48:13.821Z,6.33
2017-12-26T00:50:41.566Z,6.32
2017-12-26T00:53:09.240Z,6.31
2017-12-26T00:55:36.926Z,6.29
2017-12-26T00:58:04.652Z,6.28
2017-12-26T01:00:32.269Z,6.26
2017-12-26T01:02:59.995Z,6.23
2017-12-26T01:05:27.610Z,6.23
2017-12-26T01:07:55.278Z,6.22
2017-12-26T01:10:22.908Z,6.22
2017-12-26T01:12:50.636Z,6.21
2017-12-26T01:15:18.281Z,6.21
2017-12-26T01:17:46.941Z,6.19
2017-12-26T01:20:14.638Z,6.20
2017-12-26T01:22:42.314Z,6.18
2017-12-26T01:25:09.992Z,6.18
2017-12-26T01:27:37.710Z,6.19
2017-12-26T01:30:05.407Z,6.18
2017-12-26T01:32:33.072Z,6.16
2017-12-26T01:35:00.752Z,6.15
2017-12-26T01:37:28.476Z,6.13
2017-12-26T01:39:56.153Z,6.13
2017-12-26T01:42:23.879Z,6.10
2017-12-26T01:44:51.559Z,6.11
2017-12-26T01:47:19.278Z,6.08
2017-12-26T01:49:46.954Z,6.07
2017-12-26T01:52:14.676Z,6.04
2017-12-26T01:54:42.291Z,6.01
2017-12-26T01:57:10.016Z,6.00
2017-12-26T01:59:37.692Z,5.98
2017-12-26T02:02:05.413Z,5.98
2017-12-26T02:04:33.020Z,5.99
2017-12-26T02:07:00.752Z,5.97
2017-12-26T02:09:28.435Z,5.95
2017-12-26T02:11:56.165Z,5.94
2017-12-26T02:14:23.834Z,5.94
2017-12-26T02:16:51.551Z,5.94
2017-12-26T02:19:19.240Z,5.95
2017-12-26T02:21:46.955Z,5.93
2017-12-26T02:24:14.628Z,5.93
2017-12-26T02:26:42.365Z,5.95
2017-12-26T02:29:10.046Z,5.91
2017-12-26T02:31:37.677Z,5.90
2017-12-26T02:34:05.390Z,5.89
2017-12-26T02:36:33.071Z,5.87
2017-12-26T02:39:00.798Z,5.86
2017-12-26T02:41:28.407Z,5.82
2017-12-26T02:43:56.119Z,5.81
2017-12-26T02:46:23.812Z,5.81
2017-12-26T02:48:51.567Z,5.81
2017-12-26T02:51:19.249Z,5.81
2017-12-26T02:53:46.967Z,5.79
2017-12-26T02:56:14.577Z,5.79
2017-12-26T02:58:42.298Z,5.80
2017-12-26T03:01:09.997Z,5.80
2017-12-26T03:03:37.796Z,5.78
2017-12-26T03:06:05.475Z,5.78
2017-12-26T03:08:33.139Z,5.77
2017-12-26T03:11:00.836Z,5.75
2017-12-26T03:13:28.578Z,5.72
2017-12-26T03:15:56.192Z,5.71
2017-12-26T03:18:24.955Z,5.69
2017-12-26T03:20:52.634Z,5.66
2017-12-26T03:23:20.296Z,5.62
2017-12-26T03:25:47.978Z,5.63
2017-12-26T03:28:15.695Z,5.63
2017-12-26T03:30:43.313Z,5.61
2017-12-26T03:33:11.029Z,5.58
2017-12-26T03:35:38.726Z,5.57
2017-12-26T03:38:06.455Z,5.57
2017-12-26T03:40:34.136Z,5.54
2017-12-26T03:43:01.893Z,5.52
2017-12-26T03:45:29.578Z,5.52
2017-12-26T03:47:57.298Z,5.50
2017-12-26T03:50:24.976Z,5.49
2017-12-26T03:52:52.648Z,5.48
2017-12-26T03:55:20.339Z,5.47
2017-12-26T03:57:48.057Z,5.48
2017-12-26T04:00:15.736Z,5.46
2017-12-26T04:02:43.456Z,5.45
2017-12-26T04:05:11.183Z,5.46
2017-12-26T04:07:38.924Z,5.45
2017-12-26T04:10:06.612Z,5.44
2017-12-26T04:12:34.344Z,5.44
2017-12-26T04:15:02.076Z,5.40
2017-12-26T04:17:29.772Z,5.29
2017-12-26T04:19:57.505Z,5.21
2017-12-26T04:22:25.202Z,5.14
2017-12-26T04:24:52.928Z,5.06
2017-12-26T04:27:20.606Z,4.94
2017-12-26T04:29:48.327Z,4.83
2017-12-26T04:32:15.936Z,4.67
2017-12-26T04:34:43.648Z,4.53
2017-12-26T04:37:11.332Z,4.43
2017-12-26T04:39:39.063Z,4.33
2017-12-26T04:42:06.742Z,4.24
2017-12-26T04:44:34.471Z,4.19
2017-12-26T04:47:02.162Z,4.13
2017-12-26T04:49:29.888Z,4.03
2017-12-26T04:51:57.546Z,3.95
2017-12-26T04:54:25.262Z,3.89
2017-12-26T04:56:52.934Z,3.84
2017-12-26T04:59:20.659Z,3.77
2017-12-26T05:01:49.113Z,3.72
2017-12-26T05:04:16.892Z,3.68
2017-12-26T05:06:44.588Z,3.62
2017-12-26T05:09:12.245Z,3.58
2017-12-26T05:11:39.866Z,3.58
2017-12-26T05:14:07.585Z,3.55
2017-12-26T05:16:35.200Z,3.51
2017-12-26T05:19:02.923Z,3.50
2017-12-26T05:21:30.604Z,3.47
2017-12-26T05:23:58.319Z,3.42
2017-12-26T05:26:26.013Z,3.37
2017-12-26T05:28:53.711Z,3.33
2017-12-26T05:31:21.392Z,3.30
2017-12-26T05:33:49.055Z,3.25
2017-12-26T05:36:16.727Z,3.20
2017-12-26T05:38:44.392Z,3.16
2017-12-26T05:41:12.008Z,3.13
2017-12-26T05:43:39.749Z,3.15
2017-12-26T05:46:07.418Z,3.14
2017-12-26T05:48:35.037Z,3.10
2017-12-26T05:51:02.704Z,3.05
2017-12-26T05:53:30.310Z,3.03
2017-12-26T05:55:58.077Z,3.01
2017-12-26T05:58:25.689Z,3.01
2017-12-26T06:00:53.404Z,3.01
2017-12-26T06:03:21.072Z,2.99
2017-12-26T06:05:48.829Z,2.98
2017-12-26T06:08:16.499Z,3.01
2017-12-26T06:10:44.155Z,3.03
2017-12-26T06:13:11.837Z,3.02
2017-12-26T06:15:39.563Z,3.01
2017-12-26T06:18:07.233Z,2.99
2017-12-26T06:20:34.918Z,2.99
2017-12-26T06:23:02.592Z,2.96
2017-12-26T06:25:30.312Z,2.99
2017-12-26T06:27:57.925Z,3.04
2017-12-26T06:30:25.649Z,3.04
2017-12-26T06:32:53.272Z,2.99
2017-12-26T06:35:21.000Z,2.98
2017-12-26T06:37:48.682Z,2.97
2017-12-26T06:40:16.353Z,2.94
2017-12-26T06:42:44.036Z,2.94
2017-12-26T06:45:11.784Z,2.94
2017-12-26T06:47:39.453Z,2.94
2017-12-26T06:50:07.178Z,2.94
2017-12-26T06:52:34.803Z,2.91
2017-12-26T06:55:02.529Z,2.92
2017-12-26T06:57:30.131Z,2.98
2017-12-26T06:59:57.867Z,2.99
2017-12-26T07:02:25.492Z,3.01
2017-12-26T07:04:53.252Z,2.99
2017-12-26T07:07:20.951Z,2.97
2017-12-26T07:09:48.674Z,2.99
2017-12-26T07:12:16.334Z,3.01
2017-12-26T07:14:44.888Z,3.04
2017-12-26T07:17:12.574Z,3.11
2017-12-26T07:19:42.670Z,3.19
2017-12-26T07:22:15.920Z,3.19
2017-12-26T07:24:43.689Z,3.18
2017-12-26T07:27:11.417Z,3.21
2017-12-26T07:29:39.156Z,3.27
2017-12-26T07:32:06.831Z,3.30
2017-12-26T07:34:34.548Z,3.33
2017-12-26T07:37:02.223Z,3.30
2017-12-26T07:39:29.910Z,3.30
2017-12-26T07:41:57.627Z,3.36
2017-12-26T07:44:25.299Z,3.36
2017-12-26T07:46:53.944Z,3.34
2017-12-26T07:49:21.553Z,3.33
2017-12-26T07:51:49.299Z,3.34
2017-12-26T07:54:16.960Z,3.32
2017-12-26T07:56:44.611Z,3.29
2017-12-26T07:59:12.264Z,3.31
2017-12-26T08:01:39.928Z,3.34
2017-12-26T08:04:07.687Z,3.40
2017-12-26T08:06:35.362Z,3.47
2017-12-26T08:09:03.012Z,3.55
2017-12-26T08:11:30.681Z,3.60
2017-12-26T08:13:58.385Z,3.67
2017-12-26T08:16:26.060Z,3.71
2017-12-26T08:18:53.708Z,3.80
2017-12-26T08:21:21.395Z,3.89
2017-12-26T08:23:49.059Z,3.95
2017-12-26T08:26:17.009Z,4.03
2017-12-26T08:28:44.624Z,4.12
2017-12-26T08:31:12.281Z,4.27
2017-12-26T08:33:39.945Z,4.47
2017-12-26T08:36:07.627Z,4.65
2017-12-26T08:38:35.244Z,4.85
2017-12-26T08:41:02.916Z,5.04
2017-12-26T08:43:30.582Z,5.23
2017-12-26T08:45:58.259Z,5.42
2017-12-26T08:48:25.892Z,5.59
2017-12-26T08:50:53.578Z,5.72
2017-12-26T08:53:21.202Z,5.80
2017-12-26T08:55:48.870Z,5.77
2017-12-26T08:58:16.480Z,5.75
2017-12-26T09:00:44.138Z,5.72
2017-12-26T09:03:11.760Z,5.73
2017-12-26T09:05:39.433Z,5.77
2017-12-26T09:08:07.102Z,5.80
2017-12-26T09:10:34.773Z,5.83
2017-12-26T09:13:02.406Z,5.86
2017-12-26T09:15:30.073Z,5.87
2017-12-26T09:17:57.804Z,5.89
2017-12-26T09:20:25.446Z,5.95
2017-12-26T09:22:53.165Z,6.00
2017-12-26T09:25:20.820Z,6.05
2017-12-26T09:27:48.516Z,6.12
2017-12-26T09:30:16.171Z,6.14
2017-12-26T09:32:43.849Z,6.14
2017-12-26T09:35:11.531Z,6.14
2017-12-26T09:37:39.206Z,6.17
2017-12-26T09:40:06.888Z,6.24
2017-12-26T09:42:34.570Z,6.28
2017-12-26T09:45:02.249Z,6.30
2017-12-26T09:47:29.966Z,6.32
2017-12-26T09:49:57.577Z,6.34
2017-12-26T09:52:25.248Z,6.38
2017-12-26T09:54:52.861Z,6.45
2017-12-26T09:57:20.525Z,6.50
2017-12-26T09:59:48.223Z,6.59
2017-12-26T10:02:16.099Z,6.74
2017-12-26T10:04:43.831Z,6.88
2017-12-26T10:07:11.561Z,6.99
2017-12-26T10:09:39.251Z,7.08
2017-12-26T10:12:06.948Z,7.15
2017-12-26T10:14:34.589Z,7.21
2017-12-26T10:17:02.261Z,7.27
2017-12-26T10:19:29.942Z,7.29
2017-12-26T10:21:57.681Z,7.37
2017-12-26T10:24:25.377Z,7.50
2017-12-26T10:26:53.052Z,7.60
2017-12-26T10:29:20.670Z,7.71
2017-12-26T10:31:48.384Z,7.76
2017-12-26T10:34:16.087Z,7.82
2017-12-26T10:36:43.820Z,7.83
2017-12-26T10:39:11.506Z,7.84
2017-12-26T10:41:39.197Z,7.80
2017-12-26T10:44:06.829Z,7.74
2017-12-26T10:46:34.510Z,7.72
2017-12-26T10:49:02.208Z,7.71
2017-12-26T10:51:29.904Z,7.74
2017-12-26T10:53:57.527Z,7.80
2017-12-26T10:56:25.152Z,7.86
2017-12-26T10:58:52.817Z,7.93
2017-12-26T11:01:20.429Z,7.98
2017-12-26T11:03:48.113Z,8.05
2017-12-26T11:06:15.786Z,8.08
2017-12-26T11:08:43.483Z,8.09
2017-12-26T11:11:11.148Z,8.10
2017-12-26T11:13:38.810Z,8.10
2017-12-26T11:16:06.432Z,8.08
2017-12-26T11:18:34.167Z,8.04
2017-12-26T11:21:01.818Z,8.07
2017-12-26T11:23:29.498Z,8.12
2017-12-26T11:25:57.108Z,8.15
2017-12-26T11:28:24.825Z,8.15
2017-12-26T11:30:52.448Z,8.11
2017-12-26T11:33:20.114Z,8.06
2017-12-26T11:35:47.747Z,8.02
2017-12-26T11:38:15.419Z,8.00
2017-12-26T11:40:43.103Z,7.98
2017-12-26T11:43:10.787Z,7.86
2017-12-26T11:45:38.412Z,7.78
2017-12-26T11:48:06.159Z,7.70
2017-12-26T11:50:33.778Z,7.57
2017-12-26T11:53:01.452Z,7.47
2017-12-26T11:55:29.080Z,7.38
2017-12-26T11:57:56.762Z,7.30
2017-12-26T12:00:24.391Z,7.26
2017-12-26T12:02:52.059Z,7.26
2017-12-26T12:05:19.675Z,7.26
2017-12-26T12:07:47.336Z,7.29
2017-12-26T12:10:14.955Z,7.36
2017-12-26T12:12:42.622Z,7.37
2017-12-26T12:15:10.238Z,7.41
2017-12-26T12:17:37.981Z,7.44
2017-12-26T12:20:05.600Z,7.45
2017-12-26T12:22:33.260Z,7.46
2017-12-26T12:25:00.877Z,7.45
2017-12-26T12:27:28.563Z,7.40
2017-12-26T12:29:56.181Z,7.43
2017-12-26T12:32:23.928Z,7.46
2017-12-26T12:34:51.616Z,7.43
2017-12-26T12:37:20.195Z,7.40
2017-12-26T12:39:47.925Z,7.37
2017-12-26T12:42:15.549Z,7.35
2017-12-26T12:44:43.211Z,7.37
2017-12-26T12:47:10.894Z,7.36
2017-12-26T12:49:38.552Z,7.38
2017-12-26T12:52:06.202Z,7.35
2017-12-26T12:54:33.867Z,7.35
2017-12-26T12:57:01.495Z,7.33
2017-12-26T12:59:29.152Z,7.32
2017-12-26T13:01:56.797Z,7.31
2017-12-26T13:04:24.497Z,7.33
2017-12-26T13:06:52.125Z,7.35
2017-12-26T13:09:19.819Z,7.36
2017-12-26T13:11:47.467Z,7.36
2017-12-26T13:14:15.145Z,7.35
2017-12-26T13:16:42.780Z,7.33
2017-12-26T13:19:10.449Z,7.33
2017-12-26T13:21:38.073Z,7.29
2017-12-26T13:24:05.738Z,7.26
2017-12-26T13:26:33.427Z,7.26
2017-12-26T13:29:01.093Z,7.28
2017-12-26T13:31:28.784Z,7.30
2017-12-26T13:33:56.650Z,7.29
2017-12-26T13:36:24.280Z,7.30
2017-12-26T13:38:51.931Z,7.31
2017-12-26T13:41:19.552Z,7.33
2017-12-26T13:43:47.215Z,7.33
2017-12-26T13:46:14.856Z,7.35
2017-12-26T13:48:42.514Z,7.36
2017-12-26T13:51:10.178Z,7.33
2017-12-26T13:53:37.932Z,7.29
2017-12-26T13:56:05.763Z,7.26
2017-12-26T13:58:33.422Z,7.23
2017-12-26T14:01:01.049Z,7.15
2017-12-26T14:03:28.725Z,6.86
2017-12-26T14:05:56.370Z,6.60
2017-12-26T14:08:24.102Z,6.44
2017-12-26T14:10:51.691Z,6.28
2017-12-26T14:13:19.295Z,6.19
2017-12-26T14:15:46.952Z,6.06
2017-12-26T14:18:14.597Z,5.95
2017-12-26T14:20:42.258Z,5.85
2017-12-26T14:23:09.866Z,5.80
2017-12-26T14:25:37.518Z,5.80
2017-12-26T14:28:05.178Z,5.73
2017-12-26T14:30:32.840Z,5.71
2017-12-26T14:33:01.585Z,5.71
2017-12-26T14:35:29.247Z,5.70
2017-12-26T14:37:56.879Z,5.71
2017-12-26T14:40:24.545Z,5.66
2017-12-26T14:42:52.190Z,5.57
2017-12-26T14:45:19.860Z,5.59
2017-12-26T14:47:47.480Z,5.56
2017-12-26T14:50:15.130Z,5.51
2017-12-26T14:52:42.756Z,5.44
2017-12-26T14:55:10.420Z,5.44
2017-12-26T14:57:38.056Z,5.41
2017-12-26T15:00:05.844Z,5.32
2017-12-26T15:02:33.557Z,5.30
2017-12-26T15:05:01.344Z,5.34
2017-12-26T15:07:28.951Z,5.42
2017-12-26T15:09:56.600Z,5.41
2017-12-26T15:12:24.211Z,5.37
2017-12-26T15:14:51.866Z,5.28
2017-12-26T15:17:19.516Z,5.26
2017-12-26T15:19:47.187Z,5.16
2017-12-26T15:22:14.902Z,5.25
2017-12-26T15:24:42.668Z,5.25
2017-12-26T15:27:10.376Z,5.21
2017-12-26T15:29:38.101Z,5.18
2017-12-26T15:32:05.741Z,5.15
2017-12-26T15:34:33.397Z,5.13
2017-12-26T15:37:01.008Z,5.11
2017-12-26T15:39:28.663Z,5.18
2017-12-26T15:41:56.269Z,5.19
2017-12-26T15:44:24.001Z,5.15
2017-12-26T15:46:51.661Z,5.09
2017-12-26T15:49:19.349Z,5.10
2017-12-26T15:51:46.978Z,5.12
2017-12-26T15:54:14.606Z,5.20
2017-12-26T15:56:42.339Z,5.24
2017-12-26T15:59:09.944Z,5.21
2017-12-26T16:01:37.663Z,5.15
2017-12-26T16:04:05.295Z,5.11
2017-12-26T16:06:33.096Z,5.09
2017-12-26T16:09:00.708Z,5.07
2017-12-26T16:11:28.463Z,5.02
2017-12-26T16:13:56.077Z,4.97
2017-12-26T16:16:23.744Z,4.92
2017-12-26T16:18:51.402Z,4.89
2017-12-26T16:21:19.056Z,4.84
2017-12-26T16:23:46.658Z,4.83
2017-12-26T16:26:14.328Z,4.87
2017-12-26T16:28:42.009Z,4.94
2017-12-26T16:31:09.675Z,4.99
2017-12-26T16:33:37.288Z,4.99
2017-12-26T16:36:04.976Z,4.95
2017-12-26T16:38:32.651Z,4.94
2017-12-26T16:41:00.308Z,4.93
2017-12-26T16:43:27.930Z,4.96
2017-12-26T16:45:55.607Z,4.88
2017-12-26T16:48:23.233Z,4.82
2017-12-26T16:50:50.884Z,4.78
2017-12-26T16:53:18.576Z,4.78
2017-12-26T16:55:46.250Z,4.75
2017-12-26T16:58:13.868Z,4.77
2017-12-26T17:00:41.525Z,4.76
2017-12-26T17:03:09.183Z,4.76
2017-12-26T17:05:36.842Z,4.78
2017-12-26T17:08:06.996Z,4.81
2017-12-26T17:10:34.695Z,4.85
2017-12-26T17:13:02.295Z,4.91
2017-12-26T17:15:29.979Z,4.92
2017-12-26T17:17:57.644Z,4.90
2017-12-26T17:20:25.350Z,4.81
2017-12-26T17:22:53.011Z,4.79
2017-12-26T17:25:20.678Z,4.80
2017-12-26T17:27:48.346Z,4.83
2017-12-26T17:30:16.028Z,4.87
2017-12-26T17:32:43.645Z,4.85
2017-12-26T17:35:11.271Z,4.89
2017-12-26T17:37:38.973Z,4.98
2017-12-26T17:40:06.580Z,5.03
2017-12-26T17:42:34.252Z,5.04
2017-12-26T17:45:01.903Z,5.02
2017-12-26T17:47:29.787Z,5.02
2017-12-26T17:49:57.471Z,5.01
2017-12-26T17:52:25.537Z,5.03
2017-12-26T17:54:53.155Z,5.02
2017-12-26T17:57:20.841Z,5.08
2017-12-26T17:59:48.627Z,5.16
2017-12-26T18:02:16.337Z,5.17
2017-12-26T18:04:44.024Z,5.20
2017-12-26T18:07:11.702Z,5.19
2017-12-26T18:09:39.328Z,5.21
2017-12-26T18:12:06.983Z,5.21
2017-12-26T18:14:34.638Z,5.27
2017-12-26T18:17:02.299Z,5.33
2017-12-26T18:25:18.367Z,5.55
2017-12-26T18:27:46.044Z,5.53
2017-12-26T18:30:13.767Z,5.53
2017-12-26T18:32:41.542Z,5.56
2017-12-26T18:35:09.196Z,5.59
2017-12-26T18:37:36.972Z,5.65
2017-12-26T18:40:04.848Z,5.69
2017-12-26T18:42:36.866Z,5.71
2017-12-26T18:45:04.684Z,5.76
2017-12-26T18:47:32.582Z,5.79
2017-12-26T18:50:00.195Z,5.80
2017-12-26T18:52:27.856Z,5.80
2017-12-26T18:54:55.516Z,5.82
2017-12-26T18:57:23.217Z,5.83
2017-12-26T18:59:50.870Z,5.87
2017-12-26T19:02:18.591Z,5.89
2017-12-26T19:04:46.354Z,5.95
2017-12-26T19:07:14.092Z,5.95
2017-12-26T19:09:41.722Z,5.95
2017-12-26T19:12:09.420Z,5.94
2017-12-26T19:14:37.107Z,5.89
2017-12-26T19:17:04.811Z,5.86
2017-12-26T19:19:32.485Z,5.80
2017-12-26T19:22:00.249Z,5.67
2017-12-26T19:24:27.894Z,5.50
2017-12-26T19:26:55.633Z,5.37
2017-12-26T19:29:23.314Z,5.24
2017-12-26T19:31:50.963Z,5.18
2017-12-26T19:34:18.648Z,5.07
2017-12-26T19:36:46.392Z,4.98
2017-12-26T19:39:14.070Z,4.84
2017-12-26T19:41:41.807Z,4.74
2017-12-26T19:44:09.459Z,4.68
2017-12-26T19:46:37.242Z,4.66
2017-12-26T19:49:04.934Z,4.66
2017-12-26T19:51:32.620Z,4.68
2017-12-26T19:54:00.415Z,4.67
2017-12-26T19:56:28.148Z,4.66
2017-12-26T19:58:55.863Z,4.63
2017-12-26T20:01:23.589Z,4.57
2017-12-26T20:03:51.401Z,4.55
2017-12-26T20:06:19.182Z,4.49
2017-12-26T20:08:46.945Z,4.46
2017-12-26T20:11:14.670Z,4.44
2017-12-26T20:13:42.452Z,4.38
2017-12-26T20:16:10.135Z,4.33
2017-12-26T20:18:37.898Z,4.27
2017-12-26T20:21:05.627Z,4.26
2017-12-26T20:23:33.388Z,4.23
2017-12-26T20:26:01.122Z,4.15
2017-12-26T20:28:34.400Z,4.09
2017-12-26T20:31:02.071Z,4.11
2017-12-26T20:33:29.788Z,4.11
2017-12-26T20:35:57.518Z,4.09
2017-12-26T20:38:25.270Z,4.04
2017-12-26T20:40:53.000Z,3.98
2017-12-26T20:43:20.750Z,3.94
2017-12-26T20:45:48.502Z,3.89
2017-12-26T20:48:16.271Z,3.90
2017-12-26T20:50:43.994Z,3.95
2017-12-26T20:53:11.777Z,3.99
2017-12-26T20:55:39.499Z,4.09
2017-12-26T20:58:07.263Z,4.15
2017-12-26T21:00:34.997Z,4.16
2017-12-26T21:03:02.762Z,4.11
2017-12-26T21:05:30.542Z,4.11
2017-12-26T21:07:58.313Z,4.07
2017-12-26T21:10:26.123Z,4.01
2017-12-26T21:12:53.903Z,3.97
2017-12-26T21:15:21.645Z,3.97
2017-12-26T21:17:49.340Z,3.93
2017-12-26T21:20:17.063Z,3.89
2017-12-26T21:22:44.856Z,3.86
2017-12-26T21:25:12.572Z,3.88
2017-12-26T21:27:40.313Z,3.87
2017-12-26T21:30:08.085Z,3.85
2017-12-26T21:32:35.844Z,3.79
2017-12-26T21:35:03.611Z,3.73
2017-12-26T21:37:31.351Z,3.71
2017-12-26T21:39:59.129Z,3.67
2017-12-26T21:42:26.850Z,3.69
2017-12-26T21:44:54.639Z,3.66
2017-12-26T21:47:22.299Z,3.69
2017-12-26T21:49:50.075Z,3.67
2017-12-26T21:52:17.808Z,3.69
2017-12-26T21:54:45.522Z,3.72
2017-12-26T21:57:13.203Z,3.78
2017-12-26T21:59:40.975Z,3.77
2017-12-26T22:02:08.727Z,3.77
2017-12-26T22:04:36.549Z,3.72
2017-12-26T22:07:04.205Z,3.68
2017-12-26T22:09:31.975Z,3.63
2017-12-26T22:11:59.712Z,3.57
2017-12-26T22:14:27.484Z,3.53
2017-12-26T22:16:55.694Z,3.48
2017-12-26T22:19:23.456Z,3.39
2017-12-26T22:21:51.205Z,3.35
2017-12-26T22:24:18.988Z,3.28
2017-12-26T22:26:46.729Z,3.22
2017-12-26T22:29:14.501Z,3.14
2017-12-26T22:31:42.242Z,3.04
2017-12-26T22:34:10.012Z,2.93
2017-12-26T22:36:37.755Z,2.80
2017-12-26T22:39:05.524Z,2.64
2017-12-26T22:41:33.270Z,2.59
2017-12-26T22:44:01.050Z,2.53
2017-12-26T22:46:28.701Z,2.49
2017-12-26T22:48:56.465Z,2.46
2017-12-26T22:51:24.186Z,2.46
2017-12-26T22:53:51.978Z,2.46
2017-12-26T22:56:20.284Z,2.41
2017-12-26T22:58:48.164Z,2.36
2017-12-26T23:01:15.858Z,2.28
2017-12-26T23:03:43.565Z,2.21
2017-12-26T23:06:11.280Z,2.12
2017-12-26T23:08:38.993Z,2.03
2017-12-26T23:11:06.732Z,1.95
2017-12-26T23:13:35.334Z,1.89
2017-12-26T23:16:08.796Z,1.81
2017-12-26T23:18:36.575Z,1.78
2017-12-26T23:21:05.931Z,1.75
2017-12-26T23:23:39.286Z,1.75
2017-12-26T23:26:12.907Z,1.74
2017-12-26T23:28:46.108Z,1.75
2017-12-26T23:31:19.334Z,1.74
2017-12-26T23:33:52.683Z,1.70
2017-12-26T23:36:26.129Z,1.66
2017-12-26T23:38:59.502Z,1.65
2017-12-26T23:41:32.802Z,1.66
2017-12-26T23:44:06.218Z,1.65
2017-12-26T23:46:39.682Z,1.64
2017-12-26T23:49:12.925Z,1.61
2017-12-26T23:51:46.222Z,1.59
2017-12-26T23:54:29.756Z,1.57
2017-12-26T23:57:03.029Z,1.56
2017-12-26T23:59:36.166Z,1.58
